EGJA

Alderney Airport

Saint Anne, Guernsey
METAR EGJA 181820Z 24009KT CAVOK 17/15 Q1023
Observed Flight Rules
Aug-18 @ 18:20 UTC (5 hours ago) Visual Flight Rules
Wind Visibility Clouds
240° at 9 knots 10,000+ meters
  • Clear skies
Temperatures Readings
Current 17°C / 63°F
Dewpoint 15°C / 59°F
Humidity 88%
Altimeter 30.21" Hg
Pressure 1023 hPa
Elevation 71
METAR EGJA 181820Z 24009KT CAVOK 17/15 Q1023
Observed Flight Rules
Aug-18 @ 18:20 UTC
(5 hours ago)
VFR
Wind Visibility
240° at 9 knots 10,000+ meters
Clouds
  • Clear skies
Temperature Dewpoint
17°C / 63°F 15°C / 59°F
Humidity Altimeter Pressure
88% 30.21" Hg 1023 hPa